sensor_id;sensor_type;location;lat;lon;timestamp;pressure;altitude;pressure_sealevel;temperature;humidity
15487;BME280;7845;53.698;10.078;2023-11-19T00:00:47;100572.41;;;6.69;89.40
15487;BME280;7845;53.698;10.078;2023-11-19T00:03:12;100565.25;;;6.73;89.02
15487;BME280;7845;53.698;10.078;2023-11-19T00:05:38;100563.31;;;6.76;89.11
15487;BME280;7845;53.698;10.078;2023-11-19T00:08:04;100561.97;;;6.69;89.42
15487;BME280;7845;53.698;10.078;2023-11-19T00:10:31;100557.34;;;6.74;88.96
15487;BME280;7845;53.698;10.078;2023-11-19T00:12:56;100545.13;;;6.75;89.19
15487;BME280;7845;53.698;10.078;2023-11-19T00:15:22;100536.63;;;6.71;89.73
15487;BME280;7845;53.698;10.078;2023-11-19T00:17:49;100465.03;;;6.33;89.69
15487;BME280;7845;53.698;10.078;2023-11-19T00:20:16;100521.56;;;6.76;89.06
15487;BME280;7845;53.698;10.078;2023-11-19T00:22:42;100520.53;;;6.79;88.93
15487;BME280;7845;53.698;10.078;2023-11-19T00:25:08;100508.31;;;6.79;89.23
15487;BME280;7845;53.698;10.078;2023-11-19T00:27:34;100491.47;;;6.71;89.29
15487;BME280;7845;53.698;10.078;2023-11-19T00:29:59;100487.72;;;6.75;89.82
15487;BME280;7845;53.698;10.078;2023-11-19T00:32:25;100480.53;;;6.64;90.22
15487;BME280;7845;53.698;10.078;2023-11-19T00:34:50;100407.19;;;6.26;90.30
15487;BME280;7845;53.698;10.078;2023-11-19T00:37:16;100470.31;;;6.75;90.00
15487;BME280;7845;53.698;10.078;2023-11-19T00:39:41;100457.91;;;6.79;89.59
15487;BME280;7845;53.698;10.078;2023-11-19T00:42:07;100449.25;;;6.78;90.17
15487;BME280;7845;53.698;10.078;2023-11-19T00:44:32;100439.09;;;6.74;90.24
15487;BME280;7845;53.698;10.078;2023-11-19T00:46:57;100437.34;;;6.74;90.43
15487;BME280;7845;53.698;10.078;2023-11-19T00:49:24;100432.41;;;6.84;90.22
15487;BME280;7845;53.698;10.078;2023-11-19T00:51:50;100425.50;;;6.83;89.62
15487;BME280;7845;53.698;10.078;2023-11-19T00:54:15;100363.28;;;6.48;89.77
15487;BME280;7845;53.698;10.078;2023-11-19T00:56:40;100417.66;;;6.83;89.81
15487;BME280;7845;53.698;10.078;2023-11-19T00:59:05;100409.09;;;6.81;89.33
15487;BME280;7845;53.698;10.078;2023-11-19T01:01:31;100412.16;;;6.87;89.78
15487;BME280;7845;53.698;10.078;2023-11-19T01:03:56;100409.38;;;6.90;89.29
15487;BME280;7845;53.698;10.078;2023-11-19T01:06:29;100392.50;;;6.82;89.65
15487;BME280;7845;53.698;10.078;2023-11-19T01:08:56;100390.53;;;6.85;90.04
15487;BME280;7845;53.698;10.078;2023-11-19T01:11:25;100380.00;;;6.87;89.65
15487;BME280;7845;53.698;10.078;2023-11-19T01:13:51;100365.28;;;6.86;89.75
15487;BME280;7845;53.698;10.078;2023-11-19T01:16:16;100366.25;;;6.85;89.22
15487;BME280;7845;53.698;10.078;2023-11-19T01:18:42;100362.59;;;6.87;89.19
15487;BME280;7845;53.698;10.078;2023-11-19T01:21:07;100349.44;;;6.89;89.36
15487;BME280;7845;53.698;10.078;2023-11-19T01:23:33;100349.16;;;6.93;89.06
15487;BME280;7845;53.698;10.078;2023-11-19T01:25:59;100334.63;;;6.89;89.61
15487;BME280;7845;53.698;10.078;2023-11-19T01:28:24;100335.06;;;6.96;89.37
15487;BME280;7845;53.698;10.078;2023-11-19T01:30:53;100324.00;;;6.92;88.84
15487;BME280;7845;53.698;10.078;2023-11-19T01:33:18;100310.94;;;6.92;90.10
15487;BME280;7845;53.698;10.078;2023-11-19T01:35:43;100301.19;;;6.82;89.76
15487;BME280;7845;53.698;10.078;2023-11-19T01:38:10;100297.91;;;6.92;90.11
15487;BME280;7845;53.698;10.078;2023-11-19T01:40:39;100290.38;;;6.88;89.45
15487;BME280;7845;53.698;10.078;2023-11-19T01:43:04;100286.00;;;6.88;90.33
15487;BME280;7845;53.698;10.078;2023-11-19T01:45:30;100291.22;;;6.88;89.58
15487;BME280;7845;53.698;10.078;2023-11-19T01:48:02;100287.13;;;6.84;89.61
15487;BME280;7845;53.698;10.078;2023-11-19T01:50:31;100269.00;;;6.95;89.52
15487;BME280;7845;53.698;10.078;2023-11-19T01:52:58;100266.69;;;6.91;90.06
15487;BME280;7845;53.698;10.078;2023-11-19T01:55:24;100167.84;;;6.33;90.46
15487;BME280;7845;53.698;10.078;2023-11-19T01:57:50;100265.38;;;6.98;89.30
15487;BME280;7845;53.698;10.078;2023-11-19T02:00:24;100259.50;;;6.94;89.44
15487;BME280;7845;53.698;10.078;2023-11-19T02:02:50;100256.41;;;7.02;89.25
15487;BME280;7845;53.698;10.078;2023-11-19T02:05:17;100247.63;;;7.03;89.97
15487;BME280;7845;53.698;10.078;2023-11-19T02:07:42;100253.25;;;6.97;89.70
15487;BME280;7845;53.698;10.078;2023-11-19T02:10:08;100243.38;;;7.02;88.89
15487;BME280;7845;53.698;10.078;2023-11-19T02:12:38;100234.53;;;6.90;89.55
15487;BME280;7845;53.698;10.078;2023-11-19T02:15:08;100231.00;;;6.91;90.37
15487;BME280;7845;53.698;10.078;2023-11-19T02:17:34;100209.59;;;6.99;89.64
15487;BME280;7845;53.698;10.078;2023-11-19T02:19:59;100102.81;;;6.44;89.41
15487;BME280;7845;53.698;10.078;2023-11-19T02:22:25;100203.25;;;7.03;90.00
15487;BME280;7845;53.698;10.078;2023-11-19T02:24:51;100198.38;;;7.11;89.01
15487;BME280;7845;53.698;10.078;2023-11-19T02:27:37;100196.69;;;7.10;89.39
15487;BME280;7845;53.698;10.078;2023-11-19T02:30:04;100189.91;;;7.07;89.95
15487;BME280;7845;53.698;10.078;2023-11-19T02:32:32;100183.41;;;7.00;90.11
15487;BME280;7845;53.698;10.078;2023-11-19T02:34:57;100174.75;;;7.00;90.23
15487;BME280;7845;53.698;10.078;2023-11-19T02:37:22;100172.69;;;7.05;89.21
15487;BME280;7845;53.698;10.078;2023-11-19T02:39:48;100175.94;;;7.09;89.94
15487;BME280;7845;53.698;10.078;2023-11-19T02:42:13;100164.44;;;7.11;89.51
15487;BME280;7845;53.698;10.078;2023-11-19T02:44:38;100143.72;;;6.95;89.87
15487;BME280;7845;53.698;10.078;2023-11-19T02:47:05;100138.13;;;7.01;89.53
15487;BME280;7845;53.698;10.078;2023-11-19T02:49:33;100142.22;;;7.05;89.54
15487;BME280;7845;53.698;10.078;2023-11-19T02:51:58;100140.88;;;7.13;89.21
15487;BME280;7845;53.698;10.078;2023-11-19T02:54:24;100128.53;;;7.15;89.05
15487;BME280;7845;53.698;10.078;2023-11-19T02:56:52;100123.31;;;7.15;89.54
15487;BME280;7845;53.698;10.078;2023-11-19T02:59:21;100116.94;;;7.19;89.27
15487;BME280;7845;53.698;10.078;2023-11-19T03:01:53;100100.88;;;7.25;89.42
15487;BME280;7845;53.698;10.078;2023-11-19T03:04:19;100100.16;;;7.23;88.54
15487;BME280;7845;53.698;10.078;2023-11-19T03:06:45;100100.34;;;7.20;89.43
15487;BME280;7845;53.698;10.078;2023-11-19T03:09:11;100094.59;;;7.15;89.65
15487;BME280;7845;53.698;10.078;2023-11-19T03:11:37;100075.06;;;7.07;90.06
15487;BME280;7845;53.698;10.078;2023-11-19T03:14:02;100080.72;;;7.14;89.52
15487;BME280;7845;53.698;10.078;2023-11-19T03:16:28;100074.44;;;7.17;89.60
15487;BME280;7845;53.698;10.078;2023-11-19T03:18:53;100010.78;;;6.81;89.29
15487;BME280;7845;53.698;10.078;2023-11-19T03:21:19;100071.84;;;7.29;88.70
15487;BME280;7845;53.698;10.078;2023-11-19T03:23:44;100059.63;;;7.30;89.65
15487;BME280;7845;53.698;10.078;2023-11-19T03:26:12;100056.69;;;7.34;89.17
15487;BME280;7845;53.698;10.078;2023-11-19T03:28:38;100045.94;;;7.26;89.76
15487;BME280;7845;53.698;10.078;2023-11-19T03:31:07;100050.53;;;7.35;88.69
15487;BME280;7845;53.698;10.078;2023-11-19T03:33:35;100048.22;;;7.31;89.68
15487;BME280;7845;53.698;10.078;2023-11-19T03:36:00;100033.41;;;7.31;90.14
15487;BME280;7845;53.698;10.078;2023-11-19T03:38:25;100031.31;;;7.36;89.28
15487;BME280;7845;53.698;10.078;2023-11-19T03:40:51;100025.25;;;7.36;88.94
15487;BME280;7845;53.698;10.078;2023-11-19T03:43:16;100020.66;;;7.39;89.44
15487;BME280;7845;53.698;10.078;2023-11-19T03:45:42;100037.03;;;7.41;89.50
15487;BME280;7845;53.698;10.078;2023-11-19T03:48:07;99968.50;;;7.01;89.71
15487;BME280;7845;53.698;10.078;2023-11-19T03:50:32;99997.06;;;7.28;90.31
15487;BME280;7845;53.698;10.078;2023-11-19T03:52:58;100019.50;;;7.43;89.75
15487;BME280;7845;53.698;10.078;2023-11-19T03:55:25;100023.56;;;7.47;89.00
15487;BME280;7845;53.698;10.078;2023-11-19T03:57:50;100010.06;;;7.53;88.90
15487;BME280;7845;53.698;10.078;2023-11-19T04:00:15;100018.75;;;7.54;88.96
15487;BME280;7845;53.698;10.078;2023-11-19T04:02:41;100018.53;;;7.57;89.16
15487;BME280;7845;53.698;10.078;2023-11-19T04:05:06;99999.50;;;7.55;89.58
15487;BME280;7845;53.698;10.078;2023-11-19T04:07:32;99998.47;;;7.57;89.91
15487;BME280;7845;53.698;10.078;2023-11-19T04:09:58;99982.66;;;7.59;89.70
15487;BME280;7845;53.698;10.078;2023-11-19T04:12:23;99985.19;;;7.61;89.35
15487;BME280;7845;53.698;10.078;2023-11-19T04:14:48;99955.84;;;7.44;89.73
15487;BME280;7845;53.698;10.078;2023-11-19T04:17:14;99991.50;;;7.69;89.60
15487;BME280;7845;53.698;10.078;2023-11-19T04:19:39;99987.97;;;7.70;89.76
15487;BME280;7845;53.698;10.078;2023-11-19T04:22:07;99991.31;;;7.72;89.23
15487;BME280;7845;53.698;10.078;2023-11-19T04:24:32;99968.75;;;7.71;90.04
15487;BME280;7845;53.698;10.078;2023-11-19T04:26:58;99968.28;;;7.77;89.20
15487;BME280;7845;53.698;10.078;2023-11-19T04:29:23;99975.19;;;7.78;88.80
15487;BME280;7845;53.698;10.078;2023-11-19T04:31:48;99975.91;;;7.80;89.08
15487;BME280;7845;53.698;10.078;2023-11-19T04:34:14;99981.03;;;7.82;89.41
15487;BME280;7845;53.698;10.078;2023-11-19T04:36:39;99960.91;;;7.71;90.06
15487;BME280;7845;53.698;10.078;2023-11-19T04:39:04;99956.28;;;7.75;90.58
15487;BME280;7845;53.698;10.078;2023-11-19T04:41:34;99955.75;;;7.82;89.56
15487;BME280;7845;53.698;10.078;2023-11-19T04:44:00;99903.22;;;7.50;88.77
15487;BME280;7845;53.698;10.078;2023-11-19T04:46:25;99953.00;;;7.84;89.37
15487;BME280;7845;53.698;10.078;2023-11-19T04:48:50;99905.16;;;7.60;89.85
15487;BME280;7845;53.698;10.078;2023-11-19T04:51:16;99956.72;;;7.92;88.76
15487;BME280;7845;53.698;10.078;2023-11-19T04:53:42;99910.88;;;7.65;89.59
15487;BME280;7845;53.698;10.078;2023-11-19T04:56:08;99939.16;;;7.94;89.76
15487;BME280;7845;53.698;10.078;2023-11-19T04:58:34;99931.53;;;7.91;90.22
15487;BME280;7845;53.698;10.078;2023-11-19T05:01:01;99935.00;;;7.92;89.68
15487;BME280;7845;53.698;10.078;2023-11-19T05:03:26;99933.81;;;7.96;89.85
15487;BME280;7845;53.698;10.078;2023-11-19T05:05:52;99939.88;;;7.96;89.62
15487;BME280;7845;53.698;10.078;2023-11-19T05:08:17;99924.31;;;7.95;89.88
15487;BME280;7845;53.698;10.078;2023-11-19T05:10:42;99926.81;;;7.96;90.58
15487;BME280;7845;53.698;10.078;2023-11-19T05:13:07;99909.47;;;7.95;91.01
15487;BME280;7845;53.698;10.078;2023-11-19T05:15:33;99923.59;;;8.04;90.61
15487;BME280;7845;53.698;10.078;2023-11-19T05:17:58;99917.34;;;8.06;90.24
15487;BME280;7845;53.698;10.078;2023-11-19T05:20:23;99914.50;;;8.10;90.97
15487;BME280;7845;53.698;10.078;2023-11-19T05:22:49;99869.16;;;7.87;91.33
15487;BME280;7845;53.698;10.078;2023-11-19T05:25:18;99922.38;;;8.21;90.68
15487;BME280;7845;53.698;10.078;2023-11-19T05:27:45;99903.09;;;8.22;90.69
15487;BME280;7845;53.698;10.078;2023-11-19T05:30:10;99896.69;;;8.26;90.45
15487;BME280;7845;53.698;10.078;2023-11-19T05:32:36;99899.09;;;8.29;90.43
15487;BME280;7845;53.698;10.078;2023-11-19T05:35:01;99892.84;;;8.31;90.76
15487;BME280;7845;53.698;10.078;2023-11-19T05:37:28;99890.00;;;8.34;91.16
15487;BME280;7845;53.698;10.078;2023-11-19T05:39:53;99894.25;;;8.35;91.07
15487;BME280;7845;53.698;10.078;2023-11-19T05:42:18;99891.44;;;8.38;90.93
15487;BME280;7845;53.698;10.078;2023-11-19T05:44:43;99897.84;;;8.45;90.54
15487;BME280;7845;53.698;10.078;2023-11-19T05:47:09;99902.84;;;8.48;90.97
15487;BME280;7845;53.698;10.078;2023-11-19T05:49:34;99894.03;;;8.49;90.61
15487;BME280;7845;53.698;10.078;2023-11-19T05:52:00;99851.66;;;8.22;91.21
15487;BME280;7845;53.698;10.078;2023-11-19T05:54:26;99900.34;;;8.58;91.29
15487;BME280;7845;53.698;10.078;2023-11-19T05:56:52;99902.50;;;8.64;91.14
15487;BME280;7845;53.698;10.078;2023-11-19T05:59:19;99886.78;;;8.64;91.24
15487;BME280;7845;53.698;10.078;2023-11-19T06:01:44;99887.97;;;8.71;91.14
15487;BME280;7845;53.698;10.078;2023-11-19T06:04:10;99886.31;;;8.70;91.52
15487;BME280;7845;53.698;10.078;2023-11-19T06:06:36;99888.22;;;8.68;91.36
15487;BME280;7845;53.698;10.078;2023-11-19T06:09:01;99889.06;;;8.69;92.08
15487;BME280;7845;53.698;10.078;2023-11-19T06:11:27;99887.97;;;8.71;92.06
15487;BME280;7845;53.698;10.078;2023-11-19T06:13:53;99890.50;;;8.73;92.61
15487;BME280;7845;53.698;10.078;2023-11-19T06:16:19;99884.41;;;8.72;92.62
15487;BME280;7845;53.698;10.078;2023-11-19T06:18:44;99886.69;;;8.77;92.37
15487;BME280;7845;53.698;10.078;2023-11-19T06:21:10;99885.63;;;8.79;93.14
15487;BME280;7845;53.698;10.078;2023-11-19T06:23:35;99886.31;;;8.81;93.25
15487;BME280;7845;53.698;10.078;2023-11-19T06:26:01;99886.78;;;8.86;93.19
15487;BME280;7845;53.698;10.078;2023-11-19T06:28:26;99895.34;;;8.88;93.83
15487;BME280;7845;53.698;10.078;2023-11-19T06:30:51;99888.94;;;8.92;93.91
15487;BME280;7845;53.698;10.078;2023-11-19T06:33:18;99898.91;;;8.98;93.51
15487;BME280;7845;53.698;10.078;2023-11-19T06:35:43;99886.31;;;9.03;94.32
15487;BME280;7845;53.698;10.078;2023-11-19T06:38:08;99888.56;;;9.08;94.20
15487;BME280;7845;53.698;10.078;2023-11-19T06:40:34;99885.81;;;9.10;93.72
15487;BME280;7845;53.698;10.078;2023-11-19T06:43:00;99874.75;;;9.06;94.42
15487;BME280;7845;53.698;10.078;2023-11-19T06:45:27;99886.88;;;9.18;94.60
15487;BME280;7845;53.698;10.078;2023-11-19T06:47:53;99883.75;;;9.24;95.09
15487;BME280;7845;53.698;10.078;2023-11-19T06:50:18;99888.25;;;9.33;94.84
15487;BME280;7845;53.698;10.078;2023-11-19T06:52:44;99885.88;;;9.41;95.18
15487;BME280;7845;53.698;10.078;2023-11-19T06:55:10;99883.59;;;9.48;94.60
15487;BME280;7845;53.698;10.078;2023-11-19T06:57:35;99883.53;;;9.59;95.14
15487;BME280;7845;53.698;10.078;2023-11-19T07:00:00;99874.94;;;9.68;94.59
15487;BME280;7845;53.698;10.078;2023-11-19T07:02:26;99844.25;;;9.59;94.91
15487;BME280;7845;53.698;10.078;2023-11-19T07:04:51;99837.59;;;9.55;94.50
15487;BME280;7845;53.698;10.078;2023-11-19T07:07:17;99885.47;;;9.89;95.13
15487;BME280;7845;53.698;10.078;2023-11-19T07:09:42;99894.59;;;9.94;94.99
15487;BME280;7845;53.698;10.078;2023-11-19T07:12:08;99892.69;;;9.96;95.43
15487;BME280;7845;53.698;10.078;2023-11-19T07:14:33;99782.53;;;9.34;95.90
15487;BME280;7845;53.698;10.078;2023-11-19T07:16:59;99896.66;;;10.12;95.20
15487;BME280;7845;53.698;10.078;2023-11-19T07:19:25;99897.72;;;10.20;95.49
15487;BME280;7845;53.698;10.078;2023-11-19T07:21:50;99903.03;;;10.30;95.27
15487;BME280;7845;53.698;10.078;2023-11-19T07:24:16;99897.25;;;10.36;95.91
15487;BME280;7845;53.698;10.078;2023-11-19T07:26:46;99896.16;;;10.38;96.08
15487;BME280;7845;53.698;10.078;2023-11-19T07:29:15;99910.31;;;10.47;96.81
15487;BME280;7845;53.698;10.078;2023-11-19T07:31:42;99907.88;;;10.55;96.04
15487;BME280;7845;53.698;10.078;2023-11-19T07:34:09;99909.81;;;10.63;95.57
15487;BME280;7845;53.698;10.078;2023-11-19T07:36:35;99854.63;;;10.43;95.21
15487;BME280;7845;53.698;10.078;2023-11-19T07:39:01;99909.47;;;10.77;94.95
15487;BME280;7845;53.698;10.078;2023-11-19T07:41:26;99908.25;;;10.81;95.16
15487;BME280;7845;53.698;10.078;2023-11-19T07:43:51;99909.78;;;10.83;94.88
15487;BME280;7845;53.698;10.078;2023-11-19T07:46:17;99895.59;;;10.86;94.11
15487;BME280;7845;53.698;10.078;2023-11-19T07:48:45;99918.28;;;10.96;93.67
15487;BME280;7845;53.698;10.078;2023-11-19T07:51:12;99917.75;;;11.02;93.53
15487;BME280;7845;53.698;10.078;2023-11-19T07:53:38;99922.34;;;11.10;93.74
15487;BME280;7845;53.698;10.078;2023-11-19T07:56:06;99925.84;;;11.20;93.62
15487;BME280;7845;53.698;10.078;2023-11-19T07:58:31;99923.78;;;11.24;93.59
15487;BME280;7845;53.698;10.078;2023-11-19T08:00:58;99930.41;;;11.28;93.41
15487;BME280;7845;53.698;10.078;2023-11-19T08:03:23;99929.59;;;11.37;93.27
15487;BME280;7845;53.698;10.078;2023-11-19T08:05:49;99931.84;;;11.51;92.42
15487;BME280;7845;53.698;10.078;2023-11-19T08:08:14;99828.44;;;10.93;92.17
15487;BME280;7845;53.698;10.078;2023-11-19T08:10:40;99937.41;;;11.57;91.23
15487;BME280;7845;53.698;10.078;2023-11-19T08:13:05;99937.41;;;11.57;92.61
15487;BME280;7845;53.698;10.078;2023-11-19T08:15:31;99939.34;;;11.55;91.27
15487;BME280;7845;53.698;10.078;2023-11-19T08:17:57;99940.56;;;11.51;92.47
15487;BME280;7845;53.698;10.078;2023-11-19T08:20:22;99937.09;;;11.51;92.14
15487;BME280;7845;53.698;10.078;2023-11-19T08:22:47;99932.81;;;11.50;92.14
15487;BME280;7845;53.698;10.078;2023-11-19T08:25:13;99853.31;;;10.98;92.35
15487;BME280;7845;53.698;10.078;2023-11-19T08:27:39;99946.13;;;11.58;92.08
15487;BME280;7845;53.698;10.078;2023-11-19T08:30:05;99947.06;;;11.57;92.17
15487;BME280;7845;53.698;10.078;2023-11-19T08:32:31;99951.53;;;11.56;92.85
15487;BME280;7845;53.698;10.078;2023-11-19T08:34:56;99899.72;;;11.28;92.04
15487;BME280;7845;53.698;10.078;2023-11-19T08:37:22;99951.38;;;11.58;92.75
15487;BME280;7845;53.698;10.078;2023-11-19T08:39:48;99957.34;;;11.60;93.18
15487;BME280;7845;53.698;10.078;2023-11-19T08:42:13;99957.47;;;11.68;91.82
15487;BME280;7845;53.698;10.078;2023-11-19T08:44:39;99951.38;;;11.68;91.75
15487;BME280;7845;53.698;10.078;2023-11-19T08:47:05;99945.75;;;11.72;91.05
15487;BME280;7845;53.698;10.078;2023-11-19T08:49:31;99950.88;;;11.74;91.16
15487;BME280;7845;53.698;10.078;2023-11-19T08:51:56;99953.88;;;11.69;91.87
15487;BME280;7845;53.698;10.078;2023-11-19T08:54:21;99956.50;;;11.69;91.34
15487;BME280;7845;53.698;10.078;2023-11-19T08:56:48;99958.31;;;11.69;91.65
15487;BME280;7845;53.698;10.078;2023-11-19T08:59:13;99953.88;;;11.69;92.21
15487;BME280;7845;53.698;10.078;2023-11-19T09:01:40;99961.78;;;11.69;92.04
15487;BME280;7845;53.698;10.078;2023-11-19T09:04:06;99960.56;;;11.73;91.87
15487;BME280;7845;53.698;10.078;2023-11-19T09:06:31;99957.13;;;11.82;91.49
15487;BME280;7845;53.698;10.078;2023-11-19T09:08:56;99963.75;;;11.86;91.71
15487;BME280;7845;53.698;10.078;2023-11-19T09:11:25;99966.28;;;11.97;90.63
15487;BME280;7845;53.698;10.078;2023-11-19T09:13:51;99932.22;;;11.77;90.35
15487;BME280;7845;53.698;10.078;2023-11-19T09:16:16;99966.28;;;11.97;90.61
15487;BME280;7845;53.698;10.078;2023-11-19T09:18:42;99966.53;;;12.04;90.48
15487;BME280;7845;53.698;10.078;2023-11-19T09:21:07;99965.69;;;12.13;90.92
15487;BME280;7845;53.698;10.078;2023-11-19T09:23:32;99971.00;;;12.23;90.65
15487;BME280;7845;53.698;10.078;2023-11-19T09:26:04;99978.44;;;12.27;90.83
15487;BME280;7845;53.698;10.078;2023-11-19T09:28:30;99981.50;;;12.32;88.84
15487;BME280;7845;53.698;10.078;2023-11-19T09:30:55;99969.59;;;12.28;88.94
15487;BME280;7845;53.698;10.078;2023-11-19T09:33:21;99975.53;;;12.30;89.78
15487;BME280;7845;53.698;10.078;2023-11-19T09:35:46;99985.25;;;12.30;89.58
15487;BME280;7845;53.698;10.078;2023-11-19T09:38:11;99982.31;;;12.42;89.01
15487;BME280;7845;53.698;10.078;2023-11-19T09:40:37;99979.56;;;12.44;88.64
15487;BME280;7845;53.698;10.078;2023-11-19T09:43:04;99979.81;;;12.41;88.76
15487;BME280;7845;53.698;10.078;2023-11-19T09:45:31;99981.09;;;12.37;89.45
15487;BME280;7845;53.698;10.078;2023-11-19T09:48:00;99977.06;;;12.33;89.06
15487;BME280;7845;53.698;10.078;2023-11-19T09:50:26;99982.19;;;12.44;87.77
15487;BME280;7845;53.698;10.078;2023-11-19T09:52:51;99988.56;;;12.41;89.02
15487;BME280;7845;53.698;10.078;2023-11-19T09:55:17;99899.56;;;11.98;88.66
15487;BME280;7845;53.698;10.078;2023-11-19T09:57:43;99984.66;;;12.55;88.86
15487;BME280;7845;53.698;10.078;2023-11-19T10:00:09;99928.88;;;12.23;88.41
15487;BME280;7845;53.698;10.078;2023-11-19T10:02:36;99986.00;;;12.69;88.88
15487;BME280;7845;53.698;10.078;2023-11-19T10:05:05;99982.66;;;12.76;87.71
15487;BME280;7845;53.698;10.078;2023-11-19T10:07:31;99990.16;;;12.81;87.37
15487;BME280;7845;53.698;10.078;2023-11-19T10:10:01;99975.19;;;12.81;88.24
15487;BME280;7845;53.698;10.078;2023-11-19T10:12:29;99980.84;;;12.86;87.38
15487;BME280;7845;53.698;10.078;2023-11-19T10:14:56;99978.50;;;12.83;87.30
15487;BME280;7845;53.698;10.078;2023-11-19T10:17:27;99978.19;;;12.96;86.97
15487;BME280;7845;53.698;10.078;2023-11-19T10:19:54;99990.00;;;12.92;86.57
15487;BME280;7845;53.698;10.078;2023-11-19T10:22:19;99987.09;;;12.85;86.22
15487;BME280;7845;53.698;10.078;2023-11-19T10:24:45;99992.22;;;12.87;86.64
15487;BME280;7845;53.698;10.078;2023-11-19T10:27:10;99992.66;;;12.82;86.01
15487;BME280;7845;53.698;10.078;2023-11-19T10:29:36;99990.81;;;12.83;86.54
15487;BME280;7845;53.698;10.078;2023-11-19T10:32:02;99998.72;;;12.92;86.02
15487;BME280;7845;53.698;10.078;2023-11-19T10:34:28;99966.56;;;12.79;85.47
15487;BME280;7845;53.698;10.078;2023-11-19T10:36:54;99989.00;;;13.02;85.74
15487;BME280;7845;53.698;10.078;2023-11-19T10:39:20;99993.56;;;13.00;85.88
15487;BME280;7845;53.698;10.078;2023-11-19T10:41:46;99990.97;;;12.91;85.24
15487;BME280;7845;53.698;10.078;2023-11-19T10:44:11;99992.22;;;12.87;85.29
15487;BME280;7845;53.698;10.078;2023-11-19T10:46:39;99999.69;;;12.91;86.22
15487;BME280;7845;53.698;10.078;2023-11-19T10:49:05;99996.22;;;13.10;86.00
15487;BME280;7845;53.698;10.078;2023-11-19T10:51:32;99985.38;;;13.13;85.23
15487;BME280;7845;53.698;10.078;2023-11-19T10:54:02;100000.34;;;13.13;85.18
15487;BME280;7845;53.698;10.078;2023-11-19T10:56:31;99993.00;;;13.16;84.96
15487;BME280;7845;53.698;10.078;2023-11-19T10:58:59;99990.78;;;13.12;85.31
15487;BME280;7845;53.698;10.078;2023-11-19T11:01:27;99945.50;;;12.79;85.64
15487;BME280;7845;53.698;10.078;2023-11-19T11:03:58;100000.66;;;13.10;85.53
15487;BME280;7845;53.698;10.078;2023-11-19T11:06:29;99999.91;;;13.07;86.22
15487;BME280;7845;53.698;10.078;2023-11-19T11:08:56;99998.41;;;13.05;86.63
15487;BME280;7845;53.698;10.078;2023-11-19T11:11:23;99990.94;;;13.10;86.14
15487;BME280;7845;53.698;10.078;2023-11-19T11:13:50;99989.53;;;12.96;86.32
15487;BME280;7845;53.698;10.078;2023-11-19T11:16:18;99998.72;;;12.92;86.17
15487;BME280;7845;53.698;10.078;2023-11-19T11:18:44;99947.06;;;12.72;86.08
15487;BME280;7845;53.698;10.078;2023-11-19T11:21:14;100000.06;;;13.16;86.21
15487;BME280;7845;53.698;10.078;2023-11-19T11:26:48;100013.44;;;13.41;85.18
15487;BME280;7845;53.698;10.078;2023-11-19T11:32:45;100003.50;;;13.26;84.66
15487;BME280;7845;53.698;10.078;2023-11-19T11:35:39;100003.38;;;13.08;85.34
15487;BME280;7845;53.698;10.078;2023-11-19T11:38:08;100007.94;;;13.25;85.27
15487;BME280;7845;53.698;10.078;2023-11-19T11:40:34;100002.28;;;13.47;85.60
15487;BME280;7845;53.698;10.078;2023-11-19T11:42:59;100013.13;;;13.72;85.08
15487;BME280;7845;53.698;10.078;2023-11-19T11:45:40;100014.34;;;13.95;84.22
15487;BME280;7845;53.698;10.078;2023-11-19T11:48:14;100019.06;;;14.01;84.02
15487;BME280;7845;53.698;10.078;2023-11-19T11:50:56;99982.38;;;13.80;83.33
15487;BME280;7845;53.698;10.078;2023-11-19T11:53:23;100000.59;;;13.74;82.73
15487;BME280;7845;53.698;10.078;2023-11-19T11:58:18;100013.56;;;13.40;83.98
15487;BME280;7845;53.698;10.078;2023-11-19T12:00:43;100006.28;;;13.24;84.29
15487;BME280;7845;53.698;10.078;2023-11-19T12:03:11;100010.72;;;13.14;84.55
15487;BME280;7845;53.698;10.078;2023-11-19T12:05:45;100010.06;;;13.02;84.54
15487;BME280;7845;53.698;10.078;2023-11-19T12:08:14;100014.78;;;12.99;85.37
15487;BME280;7845;53.698;10.078;2023-11-19T12:10:49;100016.19;;;12.93;85.37
15487;BME280;7845;53.698;10.078;2023-11-19T12:13:15;100015.47;;;13.01;86.18
15487;BME280;7845;53.698;10.078;2023-11-19T12:18:30;100008.94;;;13.15;85.43
15487;BME280;7845;53.698;10.078;2023-11-19T12:20:59;100010.75;;;13.04;86.02
15487;BME280;7845;53.698;10.078;2023-11-19T12:23:31;100000.19;;;13.04;86.34
15487;BME280;7845;53.698;10.078;2023-11-19T12:25:58;100007.69;;;13.19;87.08
15487;BME280;7845;53.698;10.078;2023-11-19T12:28:23;100003.19;;;13.29;87.34
15487;BME280;7845;53.698;10.078;2023-11-19T12:30:52;100009.72;;;13.25;87.58
15487;BME280;7845;53.698;10.078;2023-11-19T12:33:17;100012.06;;;13.37;86.88
15487;BME280;7845;53.698;10.078;2023-11-19T12:35:44;100002.88;;;13.41;86.27
15487;BME280;7845;53.698;10.078;2023-11-19T12:38:20;99957.91;;;13.06;86.39
15487;BME280;7845;53.698;10.078;2023-11-19T12:43:29;99995.03;;;13.22;86.34
15487;BME280;7845;53.698;10.078;2023-11-19T12:45:55;99996.28;;;13.18;86.65
15487;BME280;7845;53.698;10.078;2023-11-19T12:48:20;100005.34;;;13.16;87.19
15487;BME280;7845;53.698;10.078;2023-11-19T12:50:53;99997.84;;;13.11;87.18
15487;BME280;7845;53.698;10.078;2023-11-19T12:53:21;100008.66;;;13.18;87.21
15487;BME280;7845;53.698;10.078;2023-11-19T12:55:47;99996.28;;;13.18;86.78
15487;BME280;7845;53.698;10.078;2023-11-19T12:58:31;99975.50;;;13.15;86.13
15487;BME280;7845;53.698;10.078;2023-11-19T13:03:30;99992.56;;;13.21;85.96
15487;BME280;7845;53.698;10.078;2023-11-19T13:06:02;99990.19;;;13.27;85.61
15487;BME280;7845;53.698;10.078;2023-11-19T13:08:28;99993.91;;;13.25;85.62
15487;BME280;7845;53.698;10.078;2023-11-19T13:10:54;99990.31;;;13.26;85.14
15487;BME280;7845;53.698;10.078;2023-11-19T13:13:20;99942.41;;;12.93;85.21
15487;BME280;7845;53.698;10.078;2023-11-19T13:15:45;99992.94;;;13.26;85.55